Argyle, Minnesota
Current Conditions -  °F | °C
As of 3:35 AM on Thursday 27 Nov 2014 (Local Time) from KGAF Reporting Station
Clear Clear  
Wind Chill: -13°   Ceiling: Unl
Heat Index: -13°   Visibility: 10mi
Dew Point: -18°   Wind: 3mph
Humidity: 77%   Direction: 230°SW
Pressure: 30.54"   Gusts: NA
Location:  48.33°N, 96.82°W
Report Text: KGAF 270935Z AUTO 23003KT 10SM CLR M25/M28 A3054 RMK AO2
Loading
Personal Weather Stations






























Interactive Weather Map New forecast layout! Learn more

10-Day Weather Forecast

Advertisements
Track Severe Weather on mobile